Time;durP1;ratioP1;P1;durP2;ratioP2;P2;SDS_P1;SDS_P2;PMS_P1;PMS_P2;Temp;Humidity;BMP_temperature;BMP_pressure;BME280_temperature;BME280_humidity;BME280_pressure;Samples;Min_cycle;Max_cycle;Signal;HPM_P1;HPM_P2
2022/10/22 00:00:10;;;;;;;5.82;1.10;;;14.10;99.90;;;13.47;100.00;96501.59;6205577;23;20100;-69
2022/10/22 00:02:37;;;;;;;5.47;0.95;;;14.00;99.90;;;13.34;100.00;96507.69;6205868;23;20436;-68
2022/10/22 00:05:05;;;;;;;4.97;1.00;;;14.00;99.90;;;13.34;100.00;96507.69;6204064;23;20143;-69
2022/10/22 00:07:32;;;;;;;6.60;0.90;;;14.00;99.90;;;13.32;100.00;96512.19;6215965;23;20025;-69
2022/10/22 00:09:59;;;;;;;8.85;1.10;;;13.90;99.90;;;13.21;100.00;96513.84;6205557;23;20508;-68
2022/10/22 00:12:26;;;;;;;3.72;0.88;;;13.90;99.90;;;13.35;100.00;96506.75;6205672;23;20123;-68
2022/10/22 00:14:53;;;;;;;7.38;0.90;;;13.90;99.90;;;13.18;100.00;96523.53;6205343;23;20036;-69
2022/10/22 00:17:20;;;;;;;3.20;1.00;;;13.90;99.90;;;13.28;100.00;96508.13;6201882;23;20087;-69
2022/10/22 00:19:48;;;;;;;2.72;0.90;;;13.90;99.90;;;13.26;100.00;96502.16;6227557;23;20452;-69
2022/10/22 00:22:15;;;;;;;6.57;0.80;;;13.90;99.90;;;13.28;100.00;96505.53;6203128;23;20020;-69
2022/10/22 00:24:42;;;;;;;4.68;0.90;;;13.80;99.90;;;13.28;100.00;96658.44;6199649;23;20772;-69
2022/10/22 00:27:11;;;;;;;5.00;0.80;;;13.80;99.90;;;13.30;100.00;96667.81;6202430;23;20027;-69
2022/10/22 00:29:38;;;;;;;5.45;0.63;;;13.90;99.90;;;13.32;100.00;96667.69;6204621;23;20059;-69
2022/10/22 00:32:07;;;;;;;2.92;0.90;;;13.90;99.90;;;13.30;100.00;96675.66;6204755;23;20452;-69
2022/10/22 00:34:34;;;;;;;3.95;0.80;;;13.80;99.90;;;13.27;100.00;96678.41;6214645;23;20479;-71
2022/10/22 00:37:01;;;;;;;2.85;0.63;;;13.80;99.90;;;13.27;100.00;96675.81;6203911;23;20471;-69
2022/10/22 00:39:28;;;;;;;3.53;1.10;;;13.80;99.90;;;13.23;100.00;96687.41;6204133;23;20866;-69
2022/10/22 00:41:57;;;;;;;4.45;0.85;;;13.80;99.90;;;13.24;100.00;96690.81;6201494;23;20031;-69
2022/10/22 00:45:01;;;;;;;3.30;0.80;;;13.80;99.90;;;13.21;100.00;96709.28;6202405;23;20078;-69
2022/10/22 00:47:43;;;;;;;2.35;0.70;;;13.80;99.90;;;13.19;100.00;96705.00;6215016;23;20027;-69
2022/10/22 00:50:42;;;;;;;3.65;0.80;;;13.90;99.90;;;13.23;100.00;96712.59;6203374;23;20035;-68
2022/10/22 00:53:18;;;;;;;8.52;1.00;;;13.80;99.90;;;13.17;100.00;96719.06;6204490;23;20420;-69
2022/10/22 00:55:50;;;;;;;6.22;1.20;;;13.80;99.90;;;13.15;100.00;96740.00;6204460;23;20028;-69
2022/10/22 00:58:20;;;;;;;7.85;1.40;;;13.80;99.90;;;13.07;100.00;96736.22;6202825;23;20020;-69
2022/10/22 01:00:47;;;;;;;5.57;1.20;;;13.90;99.90;;;13.14;100.00;96743.56;6198297;23;20020;-70
2022/10/22 01:03:14;;;;;;;4.80;1.15;;;13.90;99.90;;;13.17;100.00;96750.34;6199296;23;20032;-70
2022/10/22 01:05:56;;;;;;;7.13;1.83;;;13.90;99.90;;;13.26;100.00;96788.81;6201116;23;20026;-70
2022/10/22 01:08:38;;;;;;;3.70;1.00;;;13.90;99.90;;;13.25;100.00;96705.50;6202983;23;20020;-69
2022/10/22 01:11:30;;;;;;;3.88;1.05;;;14.00;99.90;;;13.29;100.00;96713.06;6200758;23;20404;-69
2022/10/22 01:14:13;;;;;;;4.43;0.80;;;14.00;99.90;;;13.30;100.00;96719.94;6205519;23;20024;-69
2022/10/22 01:16:54;;;;;;;2.90;1.00;;;14.00;99.90;;;13.28;100.00;96749.66;6203009;23;20032;-69
2022/10/22 01:19:58;;;;;;;5.45;1.00;;;13.90;99.90;;;13.25;100.00;96753.28;6203757;23;20100;-69
2022/10/22 01:22:41;;;;;;;8.88;1.10;;;13.90;99.90;;;13.22;100.00;96756.06;6205543;23;20017;-69
2022/10/22 01:25:49;;;;;;;4.05;1.10;;;13.90;99.90;;;13.25;100.00;96748.06;6206200;23;20028;-69
2022/10/22 01:28:40;;;;;;;4.35;1.10;;;13.90;99.90;;;13.27;100.00;96738.34;6197700;23;20025;-70
2022/10/22 01:31:09;;;;;;;1.65;0.85;;;13.90;99.90;;;13.27;100.00;96732.31;6206006;23;20032;-69
2022/10/22 01:33:39;;;;;;;5.93;1.08;;;13.90;99.90;;;13.30;100.00;96726.94;6203477;23;20562;-69
2022/10/22 01:36:07;;;;;;;2.15;0.68;;;13.80;99.90;;;13.32;100.00;96727.66;6203293;23;20024;-69
2022/10/22 01:38:35;;;;;;;3.95;0.85;;;13.80;99.90;;;13.28;100.00;96732.25;6203384;23;20056;-70
2022/10/22 01:41:02;;;;;;;4.53;0.77;;;13.80;99.90;;;13.25;100.00;96735.03;6204598;23;20162;-70
2022/10/22 01:43:29;;;;;;;3.13;0.73;;;13.90;99.90;;;13.26;100.00;96725.44;6202898;23;20049;-70
2022/10/22 01:46:01;;;;;;;4.30;0.77;;;13.80;99.90;;;13.22;100.00;96710.94;6205196;23;20024;-70
2022/10/22 01:49:16;;;;;;;3.95;0.77;;;13.80;99.90;;;13.17;100.00;96709.47;6203237;23;20017;-70
2022/10/22 01:52:03;;;;;;;3.17;0.73;;;13.70;99.90;;;13.05;100.00;96710.31;6195754;23;20073;-70
2022/10/22 01:55:05;;;;;;;1.98;0.40;;;13.60;99.90;;;13.04;100.00;96733.84;6193049;23;20021;-70
2022/10/22 01:58:16;;;;;;;1.75;0.60;;;13.60;99.90;;;12.96;100.00;96722.16;6197551;23;20021;-70
2022/10/22 02:01:02;;;;;;;2.67;0.40;;;13.60;99.90;;;13.04;100.00;96720.81;6205240;23;20457;-70
2022/10/22 02:03:59;;;;;;;4.22;0.43;;;13.50;99.90;;;13.05;100.00;96701.66;6202427;23;20507;-70
2022/10/22 02:06:29;;;;;;;3.03;0.45;;;13.60;99.90;;;13.02;100.00;96709.66;6204478;23;20043;-70
2022/10/22 02:08:58;;;;;;;1.55;0.60;;;13.50;99.90;;;12.93;100.00;96713.69;6203798;23;20465;-70
2022/10/22 02:11:25;;;;;;;2.47;0.55;;;13.50;99.90;;;12.91;100.00;96718.19;6204859;23;20102;-70
2022/10/22 02:13:57;;;;;;;2.15;0.50;;;13.50;99.90;;;12.97;100.00;96702.97;6202794;23;20029;-70
2022/10/22 02:16:34;;;;;;;2.00;0.50;;;13.40;99.90;;;12.95;100.00;96694.44;6204027;23;20021;-70
2022/10/22 02:19:09;;;;;;;2.88;0.50;;;13.40;99.90;;;12.96;100.00;96688.28;6202972;23;20263;-70
2022/10/22 02:21:36;;;;;;;2.13;0.40;;;13.40;99.90;;;13.00;100.00;96675.06;6201434;23;20515;-70
2022/10/22 02:24:04;;;;;;;3.17;0.60;;;13.40;99.90;;;12.96;100.00;96672.66;6204484;23;20023;-70
2022/10/22 02:26:53;;;;;;;3.20;0.40;;;13.40;99.90;;;12.92;100.00;96680.78;6203368;23;20548;-70
2022/10/22 02:29:52;;;;;;;3.50;0.57;;;13.50;99.90;;;12.91;100.00;96673.94;6201938;23;20104;-70
2022/10/22 02:32:24;;;;;;;2.90;0.50;;;13.50;99.90;;;12.81;100.00;96715.34;6202368;23;20031;-70
2022/10/22 02:34:53;;;;;;;2.65;0.50;;;13.50;99.90;;;12.67;100.00;96744.88;6202045;23;20024;-70
2022/10/22 02:37:21;;;;;;;3.75;0.45;;;13.50;99.90;;;12.75;100.00;96755.66;6202464;23;20058;-70
2022/10/22 02:39:48;;;;;;;2.40;0.52;;;13.50;99.90;;;12.82;100.00;96744.81;6214945;23;20024;-70
2022/10/22 02:42:15;;;;;;;1.75;0.40;;;13.40;99.90;;;12.79;100.00;96739.81;6202398;23;20477;-70
2022/10/22 02:44:42;;;;;;;6.43;0.60;;;13.30;99.90;;;12.77;100.00;96738.16;6204845;23;20020;-70
2022/10/22 02:47:09;;;;;;;3.97;0.60;;;13.30;99.90;;;12.74;100.00;96743.53;6202792;23;20025;-69
2022/10/22 02:49:36;;;;;;;0.95;0.43;;;13.30;99.90;;;12.80;100.00;96731.91;6204298;23;20028;-70
2022/10/22 02:52:03;;;;;;;1.98;0.52;;;13.30;99.90;;;12.80;100.00;96731.09;6202665;23;20024;-69
2022/10/22 02:54:30;;;;;;;4.13;0.50;;;13.30;99.90;;;12.73;100.00;96734.09;6202238;23;20025;-70
2022/10/22 02:56:57;;;;;;;2.10;0.60;;;13.30;99.90;;;12.74;100.00;96737.50;6203394;23;20016;-70
2022/10/22 02:59:24;;;;;;;0.73;0.32;;;13.30;99.90;;;12.66;100.00;96739.78;6204950;23;20099;-69
2022/10/22 03:01:51;;;;;;;3.03;0.50;;;13.20;99.90;;;12.69;100.00;96742.19;6203844;23;20059;-70
2022/10/22 03:04:17;;;;;;;4.63;0.52;;;13.20;99.90;;;12.66;100.00;96735.41;6206009;23;20452;-70
2022/10/22 03:06:47;;;;;;;3.80;0.50;;;13.10;99.90;;;12.62;100.00;96744.34;6204594;23;20031;-70
2022/10/22 03:09:14;;;;;;;2.85;0.60;;;13.10;99.90;;;12.58;100.00;96729.84;6205415;23;20048;-69
2022/10/22 03:11:41;;;;;;;3.10;0.60;;;13.10;99.90;;;12.48;100.00;96752.22;6204338;23;20028;-70
2022/10/22 03:14:08;;;;;;;2.80;0.50;;;13.00;99.90;;;12.51;100.00;96754.59;6204627;23;20124;-70
2022/10/22 03:16:35;;;;;;;1.52;0.40;;;13.00;99.90;;;12.46;100.00;96760.09;6202956;23;20131;-70
2022/10/22 03:19:02;;;;;;;2.17;0.65;;;13.00;99.90;;;12.40;100.00;96752.69;6203620;23;20029;-69
2022/10/22 03:21:48;;;;;;;4.00;0.70;;;12.90;99.90;;;12.26;100.00;96760.53;6202693;23;20021;-70
2022/10/22 03:24:37;;;;;;;3.17;0.60;;;12.90;99.90;;;12.24;100.00;96771.00;6202173;23;20028;-70
2022/10/22 03:27:04;;;;;;;2.80;0.60;;;12.80;99.90;;;12.20;100.00;96776.50;6202460;23;20479;-69
2022/10/22 03:29:36;;;;;;;2.30;0.40;;;12.80;99.90;;;12.17;100.00;96777.53;6200812;23;20025;-70
2022/10/22 03:32:03;;;;;;;1.52;0.50;;;12.80;99.90;;;12.13;100.00;96782.09;6202423;23;20334;-69
2022/10/22 03:34:30;;;;;;;2.35;0.50;;;12.80;99.90;;;12.11;100.00;96788.31;6201498;23;20551;-70
2022/10/22 03:37:00;;;;;;;1.65;0.50;;;12.70;99.90;;;12.12;100.00;96790.00;6200171;23;20056;-70
2022/10/22 03:39:31;;;;;;;5.10;0.52;;;12.70;99.90;;;12.16;100.00;96796.69;6201150;23;20337;-70
2022/10/22 03:41:58;;;;;;;1.85;0.40;;;12.60;99.90;;;12.07;100.00;96802.47;6201757;23;20526;-69
2022/10/22 03:44:25;;;;;;;1.73;0.50;;;12.70;99.90;;;12.08;100.00;96789.34;6203781;23;20025;-70
2022/10/22 03:46:52;;;;;;;4.85;0.50;;;12.60;99.90;;;12.04;100.00;96800.03;6202614;23;20036;-69
2022/10/22 03:49:25;;;;;;;1.55;0.50;;;12.60;99.90;;;11.99;100.00;96805.50;6204012;23;20021;-69
2022/10/22 03:51:52;;;;;;;2.53;0.43;;;12.70;99.90;;;12.13;100.00;96817.66;6203623;23;20025;-70
2022/10/22 03:54:19;;;;;;;2.08;0.50;;;12.70;99.90;;;12.11;100.00;96819.53;6201760;23;20021;-70
2022/10/22 03:56:46;;;;;;;3.63;0.50;;;12.70;99.90;;;12.16;100.00;96820.09;6202550;23;20028;-70
2022/10/22 03:59:13;;;;;;;3.78;0.60;;;12.60;99.90;;;12.05;100.00;96819.91;6204618;23;20024;-70
2022/10/22 04:01:41;;;;;;;2.50;0.40;;;12.60;99.90;;;12.07;100.00;96820.66;6203877;23;20352;-70
2022/10/22 04:04:08;;;;;;;3.22;0.60;;;12.60;99.90;;;12.01;100.00;96831.44;6204036;23;20448;-70
2022/10/22 04:06:34;;;;;;;1.40;0.40;;;12.50;99.90;;;12.01;100.00;96836.63;6203832;23;20029;-69
2022/10/22 04:09:01;;;;;;;2.45;0.50;;;12.50;99.90;;;11.95;100.00;96844.78;6203219;23;20028;-69
2022/10/22 04:11:28;;;;;;;6.03;0.50;;;12.50;99.90;;;11.93;100.00;96832.72;6201863;23;20044;-70
2022/10/22 04:13:55;;;;;;;3.28;0.60;;;12.50;99.90;;;11.86;100.00;96847.00;6202668;23;20439;-70
2022/10/22 04:16:22;;;;;;;4.57;0.50;;;12.50;99.90;;;11.83;100.00;96844.56;6203582;23;20109;-69
2022/10/22 04:18:54;;;;;;;5.07;0.77;;;12.50;99.90;;;11.85;100.00;96841.88;6203676;23;20020;-69
2022/10/22 04:21:21;;;;;;;3.90;0.50;;;12.50;99.90;;;11.80;100.00;96844.75;6204229;23;20025;-70
2022/10/22 04:23:51;;;;;;;2.17;0.52;;;12.40;99.90;;;11.79;100.00;96847.44;6204260;23;20027;-69
2022/10/22 04:26:20;;;;;;;1.60;0.40;;;12.40;99.90;;;11.78;100.00;96850.97;6201436;23;20052;-70
2022/10/22 04:28:48;;;;;;;2.35;0.43;;;12.40;99.90;;;11.73;100.00;96859.03;6203942;23;20021;-70
2022/10/22 04:31:21;;;;;;;2.80;0.98;;;12.30;99.90;;;11.71;100.00;96853.09;6203915;23;20028;-70
2022/10/22 04:33:58;;;;;;;3.13;0.63;;;12.30;99.90;;;11.61;100.00;96865.81;6202535;23;20103;-70
2022/10/22 04:36:27;;;;;;;2.58;0.47;;;12.30;99.90;;;11.66;100.00;96861.16;6206400;23;20035;-70
2022/10/22 04:38:58;;;;;;;3.00;0.50;;;12.30;99.90;;;11.60;100.00;96858.09;6206104;23;20024;-70
2022/10/22 04:41:37;;;;;;;1.83;0.47;;;12.20;99.90;;;11.55;100.00;96867.91;6204149;23;20024;-69
2022/10/22 04:44:05;;;;;;;1.77;0.40;;;12.20;99.90;;;11.58;100.00;96863.34;6204012;23;20024;-69
2022/10/22 04:46:39;;;;;;;6.32;0.50;;;12.20;99.90;;;11.55;100.00;96860.94;6204522;23;20374;-70
2022/10/22 04:49:06;;;;;;;4.15;0.70;;;12.10;99.90;;;11.56;100.00;96870.41;6206723;23;20456;-70
2022/10/22 04:51:33;;;;;;;3.63;0.40;;;12.10;99.90;;;11.50;100.00;96873.38;6205593;23;20063;-70
2022/10/22 04:53:59;;;;;;;2.40;0.50;;;12.10;99.90;;;11.51;100.00;96869.84;6203088;23;20017;-69
2022/10/22 04:56:30;;;;;;;3.60;0.40;;;12.10;99.90;;;11.48;100.00;96867.44;6204294;23;20032;-70
2022/10/22 04:59:00;;;;;;;2.90;0.47;;;12.00;99.90;;;11.49;100.00;96863.91;6203407;23;20344;-69
2022/10/22 05:01:30;;;;;;;3.42;0.60;;;12.00;99.90;;;11.47;100.00;96865.75;6205190;23;20032;-69
2022/10/22 05:04:00;;;;;;;1.80;0.30;;;12.00;99.90;;;11.42;100.00;96872.97;6205342;23;20457;-69
2022/10/22 05:06:29;;;;;;;3.03;0.40;;;11.90;99.90;;;11.42;100.00;96872.97;6205519;23;20021;-69
2022/10/22 05:09:02;;;;;;;1.50;0.40;;;11.90;99.90;;;11.35;100.00;96869.88;6203930;23;20103;-70
2022/10/22 05:11:35;;;;;;;;;;;11.90;99.90;;;11.32;100.00;96870.06;6205908;23;20032;-70
2022/10/22 05:14:05;;;;;;;3.72;0.47;;;11.80;99.90;;;11.27;100.00;96874.69;6202966;23;19919;-69
2022/10/22 05:16:33;;;;;;;3.70;0.50;;;11.80;99.90;;;11.18;100.00;96873.44;6199943;23;20067;-69
2022/10/22 05:19:01;;;;;;;2.65;0.50;;;11.80;99.90;;;11.22;100.00;96887.94;6204846;23;20383;-70
2022/10/22 05:21:28;;;;;;;1.20;0.30;;;11.80;99.90;;;11.21;100.00;96885.44;6202107;23;20024;-69
2022/10/22 05:23:58;;;;;;;2.60;0.30;;;11.80;99.90;;;11.16;100.00;96885.69;6205715;23;20116;-70
2022/10/22 05:26:27;;;;;;;1.92;0.40;;;11.80;99.90;;;11.18;100.00;96894.22;6204044;23;20491;-69
2022/10/22 05:28:54;;;;;;;7.07;0.50;;;11.80;99.90;;;11.16;100.00;96890.88;6202018;23;20024;-70
2022/10/22 05:31:21;;;;;;;1.10;0.40;;;11.70;99.90;;;11.23;100.00;96893.97;6205867;23;20021;-69
2022/10/22 05:33:48;;;;;;;1.80;0.30;;;11.70;99.90;;;11.18;100.00;96908.97;6204295;23;20035;-70
2022/10/22 05:36:20;;;;;;;3.17;0.40;;;11.70;99.90;;;11.12;100.00;96904.94;6204280;23;20605;-70
2022/10/22 05:38:47;;;;;;;0.82;0.30;;;11.70;99.90;;;11.09;100.00;96905.97;6204425;23;20024;-70
2022/10/22 05:41:20;;;;;;;1.15;0.40;;;11.70;99.90;;;11.13;100.00;96916.16;6203290;23;20052;-69
2022/10/22 05:43:48;;;;;;;3.28;0.80;;;11.70;99.90;;;11.05;100.00;96917.44;6203153;23;20020;-69
2022/10/22 05:46:21;;;;;;;1.55;0.40;;;11.60;99.90;;;11.04;100.00;96922.75;6204709;23;20024;-70
2022/10/22 05:48:54;;;;;;;2.15;0.47;;;11.60;99.90;;;10.96;100.00;96919.72;6203746;23;20035;-70
2022/10/22 05:51:23;;;;;;;4.15;0.47;;;11.60;99.90;;;11.00;100.00;96929.00;6203809;23;20024;-69
2022/10/22 05:53:56;;;;;;;1.77;0.40;;;11.60;99.90;;;11.00;100.00;96939.41;6205468;23;20097;-70
2022/10/22 05:56:24;;;;;;;;;;;11.60;99.90;;;10.95;100.00;96942.25;6204811;23;20025;-70
2022/10/22 05:58:51;;;;;;;3.25;0.40;;;11.50;99.90;;;10.95;100.00;96943.97;6205630;23;20462;-70
2022/10/22 06:01:38;;;;;;;5.78;0.40;;;11.50;99.90;;;10.95;100.00;96938.78;6202358;23;20024;-70
2022/10/22 06:04:09;;;;;;;1.48;0.50;;;11.50;99.90;;;10.89;100.00;96937.38;6202105;23;20031;-69
2022/10/22 06:06:44;;;;;;;1.58;0.40;;;11.40;99.90;;;10.92;100.00;96939.78;6205064;23;20028;-70
2022/10/22 06:09:31;;;;;;;1.83;0.38;;;11.50;99.90;;;11.02;100.00;96946.19;6202098;23;20061;-70
2022/10/22 06:11:59;;;;;;;1.73;0.40;;;11.50;99.90;;;10.97;100.00;96940.41;6202723;23;20055;-70
2022/10/22 06:14:26;;;;;;;2.00;0.40;;;11.50;99.90;;;10.99;100.00;96951.56;6203421;23;20024;-70
2022/10/22 06:16:54;;;;;;;6.20;0.50;;;11.50;99.90;;;10.97;100.00;96945.59;6201306;23;20731;-69
2022/10/22 06:19:25;;;;;;;6.00;0.93;;;11.50;99.90;;;10.83;100.00;96959.31;6203926;23;20096;-70
2022/10/22 06:21:52;;;;;;;4.35;0.40;;;11.50;99.90;;;10.86;100.00;96960.91;6202506;23;20020;-69
2022/10/22 06:24:19;;;;;;;1.25;0.50;;;11.40;99.90;;;10.84;100.00;96967.94;6204539;23;20020;-69
2022/10/22 06:26:50;;;;;;;3.47;0.80;;;11.50;99.90;;;10.78;100.00;96960.47;6202857;23;20292;-69
2022/10/22 06:29:17;;;;;;;3.05;0.68;;;11.40;99.90;;;10.79;100.00;96960.41;6202679;23;20013;-69
2022/10/22 06:31:44;;;;;;;2.53;0.50;;;11.40;99.90;;;10.86;100.00;96974.72;6201078;23;20112;-70
2022/10/22 06:34:13;;;;;;;0.93;0.40;;;11.40;99.90;;;10.84;100.00;96980.94;6205511;23;20025;-70
2022/10/22 06:36:42;;;;;;;1.77;0.60;;;11.40;99.90;;;10.81;100.00;96979.34;6201143;23;20349;-71
2022/10/22 06:39:16;;;;;;;1.10;0.40;;;11.40;99.90;;;10.87;100.00;96983.34;6205130;23;20368;-69
2022/10/22 06:41:43;;;;;;;1.50;0.47;;;11.40;99.90;;;10.82;100.00;96986.19;6203512;23;20024;-69
2022/10/22 06:44:16;;;;;;;3.08;0.40;;;11.40;99.90;;;10.77;100.00;96989.97;6205283;23;20024;-69
2022/10/22 06:46:43;;;;;;;1.52;0.40;;;11.50;99.90;;;10.78;100.00;96995.06;6204488;23;20110;-70
2022/10/22 06:49:14;;;;;;;1.20;0.30;;;11.50;99.90;;;10.83;100.00;96998.28;6205361;23;20049;-69
2022/10/22 06:51:41;;;;;;;1.00;0.40;;;11.50;99.90;;;10.79;100.00;97004.53;6201203;23;20408;-69
2022/10/22 06:54:08;;;;;;;4.30;0.60;;;11.50;99.90;;;10.83;100.00;96995.69;6203841;23;20025;-71
2022/10/22 06:56:35;;;;;;;2.25;0.60;;;11.40;99.90;;;10.82;100.00;96993.16;6203972;23;20445;-71
2022/10/22 06:59:02;;;;;;;0.85;0.28;;;11.40;99.90;;;10.82;100.00;96998.34;6203079;23;20020;-69
2022/10/22 07:01:33;;;;;;;3.38;0.52;;;11.40;99.90;;;10.83;100.00;97000.88;6203625;23;20784;-70
2022/10/22 07:04:01;;;;;;;2.00;0.40;;;11.40;99.90;;;10.91;100.00;97008.25;6201439;22;20062;-70
2022/10/22 07:06:29;;;;;;;3.08;0.63;;;11.50;99.90;;;10.94;100.00;97009.84;6177369;23;20021;-69
2022/10/22 07:08:58;;;;;;;4.63;0.60;;;11.50;99.90;;;10.84;100.00;97012.09;6203841;23;20543;-69
2022/10/22 07:11:29;;;;;;;1.90;0.50;;;11.50;99.90;;;10.86;100.00;97010.25;6203817;23;20040;-69
2022/10/22 07:13:58;;;;;;;5.78;0.80;;;11.50;99.90;;;10.95;100.00;97016.69;6203180;23;20028;-69
2022/10/22 07:16:25;;;;;;;1.67;0.40;;;11.50;99.90;;;10.96;100.00;97029.59;6203606;23;20031;-69
2022/10/22 07:18:59;;;;;;;4.55;0.80;;;11.60;99.90;;;11.00;100.00;97023.34;6203846;23;20115;-69
2022/10/22 07:21:26;;;;;;;3.95;0.88;;;11.50;99.90;;;11.02;100.00;97036.25;6203681;23;20487;-69
2022/10/22 07:23:53;;;;;;;3.30;1.05;;;11.60;99.90;;;10.93;100.00;97044.53;6202085;23;20031;-69
2022/10/22 07:26:21;;;;;;;5.00;0.88;;;11.60;99.90;;;10.87;100.00;97054.28;6201571;23;20021;-69
2022/10/22 07:28:48;;;;;;;5.00;1.15;;;11.60;99.90;;;11.06;100.00;97053.31;6205701;23;20032;-69
2022/10/22 07:31:16;;;;;;;4.82;1.33;;;11.60;99.90;;;10.96;100.00;97054.72;6206314;23;20024;-69
2022/10/22 07:33:44;;;;;;;2.40;0.40;;;11.70;99.90;;;11.23;100.00;97070.63;6205060;23;20036;-69
2022/10/22 07:36:16;;;;;;;5.47;0.98;;;11.80;99.90;;;12.24;100.00;97059.84;6203210;23;20035;-70
2022/10/22 07:38:53;;;;;;;1.65;0.60;;;12.30;99.90;;;12.53;100.00;97068.56;6201479;23;20029;-69
2022/10/22 07:41:19;;;;;;;2.35;0.80;;;12.80;99.90;;;12.89;100.00;97071.69;6199969;23;20126;-69
2022/10/22 07:43:46;;;;;;;5.43;1.00;;;13.10;99.90;;;13.35;100.00;97061.94;6203286;23;20016;-70
2022/10/22 07:46:13;;;;;;;4.13;0.50;;;13.50;99.90;;;13.72;100.00;97058.78;6203287;23;20024;-70
2022/10/22 07:48:40;;;;;;;3.40;0.65;;;13.80;99.90;;;13.60;100.00;97058.63;6204754;23;20016;-70
2022/10/22 07:51:07;;;;;;;6.65;0.70;;;13.90;99.90;;;13.63;100.00;97054.16;6204312;23;20127;-70
2022/10/22 07:53:34;;;;;;;1.50;0.60;;;14.20;99.90;;;13.70;100.00;97069.31;6205349;23;20717;-70
2022/10/22 07:56:01;;;;;;;4.15;0.60;;;14.40;99.90;;;13.58;100.00;97062.25;6204610;23;20032;-70
2022/10/22 07:58:28;;;;;;;2.67;0.43;;;14.50;99.90;;;13.78;100.00;97067.06;6204499;23;20031;-70
2022/10/22 08:00:59;;;;;;;3.05;0.55;;;14.60;99.90;;;13.44;100.00;97072.72;6204644;23;20368;-70
2022/10/22 08:03:28;;;;;;;2.53;0.50;;;14.50;99.90;;;13.48;100.00;97095.03;6205106;23;20120;-70
2022/10/22 08:05:55;;;;;;;2.70;0.50;;;14.40;99.90;;;13.35;100.00;97087.16;6205357;23;20016;-70
2022/10/22 08:08:22;;;;;;;2.55;0.50;;;14.30;99.90;;;13.50;100.00;97095.78;6200376;23;20119;-69
2022/10/22 08:10:58;;;;;;;7.20;0.60;;;14.10;99.90;;;13.26;100.00;97087.69;6202580;23;20123;-69
2022/10/22 08:13:26;;;;;;;1.08;0.40;;;14.00;99.90;;;12.86;100.00;97111.75;6198807;23;20016;-69
2022/10/22 08:15:53;;;;;;;3.22;0.50;;;13.80;99.90;;;12.94;100.00;97108.72;6203026;23;20043;-70
2022/10/22 08:18:24;;;;;;;9.30;0.70;;;13.70;99.90;;;12.76;100.00;97100.22;6205547;23;20407;-70
2022/10/22 08:20:51;;;;;;;3.50;0.52;;;13.60;99.90;;;12.49;100.00;97116.50;6206390;23;20648;-69
2022/10/22 08:23:18;;;;;;;4.70;0.70;;;13.60;99.90;;;12.59;100.00;97106.44;6205096;23;20321;-69
2022/10/22 08:25:50;;;;;;;4.23;0.70;;;13.50;99.90;;;12.51;100.00;97106.84;6203090;23;20031;-69
2022/10/22 08:28:16;;;;;;;2.70;0.70;;;13.30;99.90;;;12.48;100.00;97124.44;6203316;23;20873;-70
2022/10/22 08:30:48;;;;;;;5.78;0.70;;;13.20;99.90;;;12.32;100.00;97122.69;6202984;23;20043;-70
2022/10/22 08:33:15;;;;;;;1.67;0.68;;;13.20;99.90;;;12.31;100.00;97125.38;6204963;23;20040;-70
2022/10/22 08:35:47;;;;;;;14.82;1.10;;;13.30;99.90;;;12.49;100.00;97116.50;6203130;23;20021;-70
2022/10/22 08:38:13;;;;;;;6.90;0.80;;;13.40;99.90;;;12.69;100.00;97117.97;6205227;23;20384;-70
2022/10/22 08:40:41;;;;;;;6.03;1.10;;;13.40;99.90;;;12.74;100.00;97109.88;6203120;23;20279;-70
2022/10/22 08:43:33;;;;;;;5.95;0.95;;;13.40;99.90;;;12.76;100.00;97118.44;6204470;23;20024;-70
2022/10/22 08:46:31;;;;;;;1.83;0.98;;;13.60;99.90;;;12.88;100.00;97124.69;6206262;23;20096;-70
2022/10/22 08:49:01;;;;;;;1.98;0.80;;;13.70;99.90;;;13.12;100.00;97127.63;6203820;23;20451;-70
2022/10/22 08:51:33;;;;;;;1.65;0.75;;;13.90;99.90;;;13.06;100.00;97130.59;6204921;23;20051;-70
2022/10/22 08:54:16;;;;;;;;;;;14.20;99.90;;;13.22;100.00;97146.16;6204016;23;20028;-69
2022/10/22 08:56:49;;;;;;;5.95;1.20;;;14.40;99.90;;;13.46;100.00;97126.44;6234580;23;19920;-72
2022/10/22 08:59:25;;;;;;;3.67;1.00;;;14.60;99.90;;;13.28;100.00;97141.44;6202094;23;20496;-72
2022/10/22 09:01:53;;;;;;;6.05;1.00;;;14.60;99.90;;;13.61;100.00;97132.47;6205242;23;20123;-71
2022/10/22 09:04:37;;;;;;;6.28;0.90;;;14.60;99.90;;;13.69;100.00;97143.28;6202782;23;20024;-72
2022/10/22 09:07:04;;;;;;;2.22;0.90;;;14.60;99.90;;;13.81;100.00;97142.50;6201506;23;20480;-72
2022/10/22 09:09:39;;;;;;;2.17;0.80;;;14.80;99.90;;;13.63;100.00;97148.88;6203812;23;20035;-72
2022/10/22 09:12:09;;;;;;;2.78;0.88;;;14.80;99.90;;;13.66;100.00;97156.53;6201950;23;20020;-70
2022/10/22 09:14:36;;;;;;;3.42;0.77;;;14.80;99.90;;;13.68;100.00;97152.03;6205504;23;20050;-70
2022/10/22 09:17:25;;;;;;;4.40;0.95;;;14.80;99.90;;;14.04;100.00;97148.03;6204766;23;20021;-69
2022/10/22 09:20:15;;;;;;;3.90;0.80;;;15.00;99.90;;;14.34;100.00;97140.00;6214581;23;20047;-70
2022/10/22 09:23:04;;;;;;;3.13;0.80;;;15.30;99.90;;;14.34;100.00;97144.41;6203453;23;20534;-71
2022/10/22 09:25:35;;;;;;;5.82;1.00;;;15.40;99.90;;;14.47;100.00;97155.75;6204440;23;20088;-70
2022/10/22 09:28:05;;;;;;;4.57;1.05;;;15.50;99.90;;;14.28;100.00;97150.88;6217276;23;20039;-69
2022/10/22 09:30:37;;;;;;;8.52;1.10;;;15.50;99.90;;;14.30;100.00;97150.75;6206847;23;20079;-69
2022/10/22 09:33:19;;;;;;;5.95;0.80;;;15.50;99.90;;;14.31;100.00;97162.88;6227725;23;20024;-70
2022/10/22 09:36:02;;;;;;;2.72;0.85;;;15.40;99.90;;;14.30;100.00;97174.25;6206309;23;20649;-71
2022/10/22 09:38:39;;;;;;;6.03;0.88;;;15.40;99.90;;;14.32;100.00;97183.69;6204850;23;20047;-70
2022/10/22 09:41:07;;;;;;;6.43;1.02;;;15.50;99.90;;;14.68;100.00;97165.75;6204979;23;20029;-70
2022/10/22 09:43:35;;;;;;;6.07;1.10;;;15.60;99.90;;;14.72;100.00;97178.50;6205693;23;20025;-70
2022/10/22 09:46:17;;;;;;;8.35;0.90;;;15.60;99.90;;;14.75;100.00;97174.84;6206975;23;20055;-70
2022/10/22 09:49:13;;;;;;;5.30;0.90;;;15.80;99.90;;;14.73;100.00;97171.50;6204728;23;20029;-70
2022/10/22 09:51:58;;;;;;;8.43;1.35;;;15.90;99.90;;;14.84;100.00;97192.53;6204839;23;20021;-69
2022/10/22 09:54:40;;;;;;;3.30;0.60;;;16.00;99.90;;;15.20;100.00;97180.56;6206544;23;20028;-70
2022/10/22 09:57:21;;;;;;;5.55;0.80;;;16.10;99.90;;;15.13;100.00;97187.16;6205659;23;20036;-70
2022/10/22 09:59:51;;;;;;;5.97;1.10;;;16.20;99.90;;;15.15;100.00;97188.72;6205562;23;20021;-70
2022/10/22 10:02:22;;;;;;;6.75;0.80;;;16.20;99.90;;;14.89;100.00;97202.69;6229537;23;20047;-69
2022/10/22 10:05:07;;;;;;;4.55;0.80;;;16.30;99.90;;;15.16;100.00;97203.47;6204872;23;20107;-70
2022/10/22 10:07:36;;;;;;;3.65;0.85;;;16.40;99.90;;;15.37;100.00;97195.97;6204062;23;20043;-70
2022/10/22 10:10:46;;;;;;;3.85;0.52;;;16.60;99.90;;;15.43;100.00;97207.78;6206396;23;20043;-70
2022/10/22 10:13:47;;;;;;;3.70;0.73;;;16.70;99.90;;;15.47;100.00;97207.47;6192190;23;20047;-70
2022/10/22 10:17:08;;;;;;;5.68;0.73;;;16.90;99.90;;;15.82;100.00;97212.06;6206864;23;20031;-70
2022/10/22 10:20:02;;;;;;;4.82;0.85;;;17.10;99.90;;;15.71;100.00;97229.47;6203897;23;20682;-69
2022/10/22 10:23:05;;;;;;;6.25;0.80;;;17.20;99.90;;;15.57;100.00;97230.38;6206293;23;20035;-70
2022/10/22 10:25:47;;;;;;;4.38;0.60;;;17.50;99.90;;;15.99;100.00;97228.41;6194028;23;20028;-70
2022/10/22 10:28:49;;;;;;;3.75;0.70;;;17.70;99.90;;;16.24;100.00;97244.03;6205402;23;20027;-69
2022/10/22 10:31:31;;;;;;;5.60;0.85;;;17.70;99.90;;;16.34;100.00;97257.31;6205963;23;20465;-70
2022/10/22 10:34:29;;;;;;;6.60;0.67;;;17.60;99.90;;;16.35;100.00;97266.84;6206134;23;20031;-70
2022/10/22 10:37:24;;;;;;;3.15;0.70;;;17.80;99.90;;;16.56;100.00;97271.50;6205135;23;20322;-70